Gautier, MS

4:00 PM CST on December 20, 2014 (GMT -0600)
Keesler Air Force Base | Change Station
CLOSE
Current Station
Airport
Location: Biloxi,
Elevation: 33 ft
Nearby Weather Stations

Elev 33 ft 30.41 °N, 88.92 °W | Updated 2 minutes ago

Overcast
Overcast
52 °F
Feels Like 52 °F
N
13
Wind Variable Wind from NNE

Today
High -- | Low -- °F
--% Chance of Precip.
Yesterday
High -- | Low -- °F
Precip. -- in
6:46 AM 4:57 PM
Waning Crescent, 2% visible
Pressure 30.12 in
Visibility 10.0 miles
Clouds Overcast 1000 ft
Dew Point 49 °F
Humidity 89%
Rainfall 0.55 in
Snow Depth Not available.
UV 0 out of 12
Pollen 2.00 out of 12
Air Quality Not available.
Flu Activity Not available.
METAR KBIX 202158Z AUTO 03011KT 10SM OVC010 11/09 A3011 RMK AO2 SLP199 T01090092

More Conditions Fewer Conditions

Pressure 30.12 in
Visibility 10.0 miles
Clouds Overcast 1000 ft
Dew Point 49 °F
Humidity 89%
Rainfall 0.55 in
Snow Depth Not available.
UV 0 out of 12
Pollen 2.00 out of 12
Air Quality Not available.
Flu Activity Not available.
METAR KBIX 202158Z AUTO 03011KT 10SM OVC010 11/09 A3011 RMK AO2 SLP199 T01090092

More Conditions Fewer Conditions

10-Day Weather Forecast

Almanac

Astronomy

Dec. 20, 2014 Rise Set
Actual Time
Civil Twilight
Nautical Twilight
Astronomical Twilight
Moon
Length of Visible Light
Length of Day
Tomorrow will be .
, % of the Moon is Illuminated

Today's Extremes

State Highs State Lows

Community

WunderPhotos

Upload Photos

1,779,288 photos uploaded!

WunderBlogs® & News

Nearby

Air Quality

  Air Quality AQ Index Pollutant
Not available.

Snow Depth

Station Depth Elevation

Earthquake Activity

City Distance Mag. Time & Date
Minimum magnitude displayed is 2.5.

Coastal Water Temperatures

Place Temperature

Nearby Weather Stations